Time;durP1;ratioP1;P1;durP2;ratioP2;P2;SDS_P1;SDS_P2;PMS_P1;PMS_P2;Temp;Humidity;BMP_temperature;BMP_pressure;BME280_temperature;BME280_humidity;BME280_pressure;Samples;Min_cycle;Max_cycle;Signal;HPM_P1;HPM_P2
2022/06/20 00:02:02;;;;;;;4.55;2.75;;;;;;;13.65;100.00;100448.13;5012508;28;20049;-80
2022/06/20 00:04:28;;;;;;;3.40;2.15;;;;;;;13.62;100.00;100384.53;4993122;28;20449;-79
2022/06/20 00:06:55;;;;;;;6.70;3.55;;;;;;;13.61;100.00;100381.91;4992745;28;20099;-78
2022/06/20 00:09:22;;;;;;;5.10;3.42;;;;;;;13.80;100.00;100409.53;5018254;28;20602;-80
2022/06/20 00:11:50;;;;;;;5.20;2.90;;;;;;;13.85;100.00;100478.38;4994590;28;20038;-77
2022/06/20 00:14:20;;;;;;;5.53;3.50;;;;;;;13.78;100.00;100489.22;4994081;28;20045;-77
2022/06/20 00:16:47;;;;;;;4.03;3.17;;;;;;;13.68;100.00;100455.09;5011576;28;20038;-80
2022/06/20 00:19:15;;;;;;;5.47;2.80;;;;;;;13.55;100.00;100428.16;5007634;28;20049;-80
2022/06/20 00:21:41;;;;;;;3.67;2.90;;;;;;;13.50;100.00;100436.25;4995158;28;20038;-78
2022/06/20 00:24:08;;;;;;;4.45;2.70;;;;;;;13.48;100.00;100463.78;4992348;28;20049;-81
2022/06/20 00:26:36;;;;;;;3.40;2.90;;;;;;;13.46;100.00;100465.63;4995520;28;20046;-78
2022/06/20 00:29:04;;;;;;;5.90;3.08;;;;;;;13.46;100.00;100460.31;4978595;28;20096;-80
2022/06/20 00:31:31;;;;;;;6.43;3.15;;;;;;;13.53;100.00;100441.44;5010969;28;20085;-78
2022/06/20 00:33:58;;;;;;;5.22;2.67;;;;;;;13.57;100.00;100428.09;5006324;28;20047;-78
2022/06/20 00:36:25;;;;;;;4.63;2.75;;;;;;;13.42;100.00;100440.09;4988024;28;20466;-79
2022/06/20 00:38:54;;;;;;;3.35;2.80;;;;;;;13.26;100.00;100447.75;5009911;28;20042;-78
2022/06/20 00:41:25;;;;;;;4.30;2.80;;;;;;;13.18;100.00;100440.00;5010897;28;20092;-78
2022/06/20 00:43:53;;;;;;;5.65;3.70;;;;;;;13.20;100.00;100455.91;4991507;28;20669;-78
2022/06/20 00:46:42;;;;;;;4.28;3.08;;;;;;;13.12;100.00;100457.94;5079226;23;20046;-83
2022/06/20 00:49:17;;;;;;;5.28;3.17;;;;;;;13.18;100.00;100453.28;4990878;28;20034;-82
2022/06/20 00:51:51;;;;;;;3.25;2.63;;;;;;;13.08;100.00;100472.22;4959010;28;20039;-84
2022/06/20 00:54:21;;;;;;;;;;;;;;;12.91;100.00;100463.03;4974525;28;20112;-83
2022/06/20 00:57:01;;;;;;;3.63;2.53;;;;;;;12.88;100.00;100484.38;4990281;28;20354;-84
2022/06/20 00:59:41;;;;;;;6.65;2.95;;;;;;;12.83;100.00;100488.94;4975708;28;20054;-82
2022/06/20 01:02:21;;;;;;;5.72;2.75;;;;;;;12.84;100.00;100484.50;4978351;28;20050;-84
2022/06/20 01:05:03;;;;;;;5.00;4.03;;;;;;;12.91;100.00;100452.44;4976327;28;20047;-82
2022/06/20 01:07:42;;;;;;;6.60;3.53;;;;;;;13.04;100.00;100486.50;4977494;28;20400;-83
2022/06/20 01:10:12;;;;;;;5.72;3.60;;;;;;;12.93;100.00;100485.06;4975553;28;20045;-83
2022/06/20 01:12:48;;;;;;;7.10;3.20;;;;;;;12.94;100.00;100497.41;4977870;28;20411;-84
2022/06/20 01:15:22;;;;;;;4.95;3.47;;;;;;;13.05;100.00;100501.50;4975763;28;20038;-84
2022/06/20 01:17:49;;;;;;;4.75;3.47;;;;;;;13.06;100.00;100516.50;4961835;28;20072;-83
2022/06/20 01:20:23;;;;;;;4.22;3.10;;;;;;;13.05;100.00;100512.13;4972961;28;20069;-83
2022/06/20 01:22:52;;;;;;;5.60;3.47;;;;;;;13.15;100.00;100495.84;4972368;28;20039;-83
2022/06/20 01:25:57;;;;;;;5.55;3.58;;;;;;;13.20;100.00;100498.34;4990754;28;20046;-83
2022/06/20 01:28:30;;;;;;;5.93;3.80;;;;;;;13.22;100.00;100518.63;4969352;28;20562;-83
2022/06/20 01:30:59;;;;;;;4.45;3.60;;;;;;;13.23;100.00;100533.63;4960481;28;20051;-83
2022/06/20 01:33:26;;;;;;;5.25;3.20;;;;;;;13.14;100.00;100525.06;4977379;28;20046;-83
2022/06/20 01:38:40;;;;;;;3.58;3.05;;;;;;;13.16;100.00;100494.03;4985474;28;20384;-82
2022/06/20 01:43:54;;;;;;;3.67;3.28;;;;;;;13.21;100.00;100511.59;4984058;28;20969;-84
2022/06/20 01:46:22;;;;;;;5.40;3.47;;;;;;;13.22;100.00;100525.72;4977234;28;20048;-83
2022/06/20 01:48:52;;;;;;;5.55;3.72;;;;;;;13.28;100.00;100549.38;4955849;28;20046;-83
2022/06/20 01:51:43;;;;;;;5.15;3.40;;;;;;;13.32;100.00;100531.56;4974089;28;20039;-82
2022/06/20 01:54:10;;;;;;;5.35;3.60;;;;;;;13.31;100.00;100554.59;4961348;28;20058;-84
2022/06/20 01:56:39;;;;;;;4.65;3.85;;;;;;;13.35;100.00;100577.44;4975916;28;20093;-83
2022/06/20 01:59:09;;;;;;;5.50;4.55;;;;;;;13.44;100.00;100549.72;4998456;28;20046;-84
2022/06/20 02:01:37;;;;;;;4.40;3.58;;;;;;;13.32;100.00;100527.13;4975998;28;20041;-84
2022/06/20 02:04:07;;;;;;;4.50;3.85;;;;;;;13.33;100.00;100523.56;4974825;28;20108;-83
2022/06/20 02:06:34;;;;;;;8.95;4.40;;;;;;;13.46;100.00;100494.81;4957067;28;20045;-83
2022/06/20 02:09:04;;;;;;;7.47;4.00;;;;;;;13.43;100.00;100527.63;4969058;28;20054;-83
2022/06/20 02:11:34;;;;;;;4.45;3.55;;;;;;;13.34;100.00;100549.16;4957301;28;20098;-84
2022/06/20 02:14:13;;;;;;;5.40;4.30;;;;;;;13.33;100.00;100530.66;4987358;28;20047;-84
2022/06/20 02:16:43;;;;;;;5.05;3.47;;;;;;;13.33;100.00;100489.06;4958445;28;20054;-83
2022/06/20 02:19:12;;;;;;;4.93;4.10;;;;;;;13.24;100.00;100461.06;4946080;28;20042;-83
2022/06/20 02:21:39;;;;;;;4.63;4.13;;;;;;;13.23;100.00;100462.00;4976066;28;20041;-84
2022/06/20 02:24:19;;;;;;;5.72;4.00;;;;;;;13.21;100.00;100498.31;4958951;28;20062;-83
2022/06/20 02:26:50;;;;;;;6.53;4.43;;;;;;;13.20;100.00;100483.31;4970649;28;20436;-83
2022/06/20 02:29:22;;;;;;;4.85;3.97;;;;;;;13.15;100.00;100447.22;4968866;28;20056;-84
2022/06/20 02:32:15;;;;;;;5.25;4.32;;;;;;;13.22;100.00;100430.22;4960955;28;20038;-84
2022/06/20 02:34:44;;;;;;;8.77;4.60;;;;;;;13.18;100.00;100449.75;4957756;28;20034;-83
2022/06/20 02:37:14;;;;;;;7.18;4.57;;;;;;;13.13;100.00;100464.97;4959210;28;20046;-83
2022/06/20 02:39:42;;;;;;;5.10;4.07;;;;;;;13.12;100.00;100457.94;4957680;28;20080;-83
2022/06/20 02:42:14;;;;;;;5.35;4.15;;;;;;;13.13;100.00;100449.06;4974097;28;20046;-83
2022/06/20 02:44:43;;;;;;;6.18;4.93;;;;;;;13.17;100.00;100440.06;4956048;28;20426;-82
2022/06/20 02:47:10;;;;;;;5.78;4.53;;;;;;;13.17;100.00;100432.97;4940286;28;20046;-83
2022/06/20 02:49:37;;;;;;;5.32;4.82;;;;;;;13.17;100.00;100402.94;4971411;28;20097;-82
2022/06/20 02:52:06;;;;;;;6.80;4.88;;;;;;;13.18;100.00;100383.44;4968017;28;20053;-82
2022/06/20 02:54:34;;;;;;;5.13;4.57;;;;;;;13.15;100.00;100383.56;4974307;28;20064;-81
2022/06/20 02:57:17;;;;;;;5.55;4.70;;;;;;;13.21;100.00;100381.59;4974594;28;20066;-81
2022/06/20 02:59:50;;;;;;;9.37;5.03;;;;;;;13.23;100.00;100376.22;4971726;28;20046;-81
2022/06/20 03:02:19;;;;;;;5.40;4.65;;;;;;;13.15;100.00;100371.16;4972980;28;20236;-81
2022/06/20 03:04:46;;;;;;;5.68;4.80;;;;;;;13.13;100.00;100356.22;4958095;28;20049;-82
2022/06/20 03:07:20;;;;;;;6.43;4.95;;;;;;;13.26;100.00;100394.69;4988561;28;20043;-83
2022/06/20 03:09:51;;;;;;;6.53;5.15;;;;;;;13.25;100.00;100416.81;4973550;28;20499;-82
2022/06/20 03:12:17;;;;;;;6.68;5.35;;;;;;;13.19;100.00;100412.59;4956040;28;20043;-82
2022/06/20 03:14:56;;;;;;;8.35;5.82;;;;;;;13.15;100.00;100395.03;4965704;28;20129;-83
2022/06/20 03:17:23;;;;;;;7.70;5.50;;;;;;;13.14;100.00;100381.84;4962578;28;20043;-82
2022/06/20 03:19:56;;;;;;;6.90;5.75;;;;;;;13.22;100.00;100361.25;4958342;28;20038;-83
2022/06/20 03:22:27;;;;;;;8.90;5.40;;;;;;;13.32;100.00;100381.22;4956453;28;20039;-84
2022/06/20 03:24:57;;;;;;;;;;;;;;;13.42;100.00;100387.91;4956190;28;20039;-84
2022/06/20 03:27:29;;;;;;;6.03;5.40;;;;;;;13.29;100.00;100393.72;4977213;28;19922;-84
2022/06/20 03:30:00;;;;;;;8.07;5.55;;;;;;;13.16;100.00;100402.06;4957959;28;20056;-85
2022/06/20 03:32:27;;;;;;;9.20;5.90;;;;;;;13.19;100.00;100424.97;4975355;28;21353;-84
2022/06/20 03:34:54;;;;;;;6.25;5.30;;;;;;;13.26;100.00;100407.94;4963454;28;20129;-83
2022/06/20 03:37:21;;;;;;;7.93;6.03;;;;;;;13.24;100.00;100380.63;4959586;28;20042;-84
2022/06/20 03:39:50;;;;;;;7.97;6.00;;;;;;;13.15;100.00;100355.25;4952897;28;20050;-84
2022/06/20 03:42:42;;;;;;;7.03;6.07;;;;;;;13.11;100.00;100376.63;4960208;28;20065;-85
2022/06/20 03:45:35;;;;;;;8.68;6.05;;;;;;;13.19;100.00;100399.34;4971264;28;20109;-84
2022/06/20 03:48:14;;;;;;;8.95;6.22;;;;;;;13.24;100.00;100400.06;4957181;28;20046;-83
2022/06/20 03:50:51;;;;;;;8.50;6.00;;;;;;;13.27;100.00;100411.47;4968805;28;20049;-84
2022/06/20 03:53:32;;;;;;;8.73;6.70;;;;;;;13.34;100.00;100424.47;4952716;28;20038;-84
2022/06/20 03:56:28;;;;;;;8.23;6.63;;;;;;;13.35;100.00;100435.94;4969613;28;20495;-82
2022/06/20 03:59:06;;;;;;;11.32;7.68;;;;;;;13.38;100.00;100386.28;4965772;28;20034;-84
2022/06/20 04:01:40;;;;;;;9.88;7.22;;;;;;;13.40;100.00;100399.50;4974905;28;20415;-84
2022/06/20 04:04:17;;;;;;;8.85;6.90;;;;;;;13.38;100.00;100396.91;4957227;28;20814;-82
2022/06/20 04:07:06;;;;;;;9.93;7.43;;;;;;;13.47;100.00;100385.97;4971514;28;20299;-82
2022/06/20 04:12:32;;;;;;;7.57;6.35;;;;;;;13.51;100.00;100403.50;4977009;28;20038;-83
2022/06/20 04:15:28;;;;;;;7.90;5.85;;;;;;;13.62;100.00;100379.22;4954996;28;20050;-83
2022/06/20 04:21:18;;;;;;;8.32;6.18;;;;;;;13.76;100.00;100376.03;4990461;28;20454;-84
2022/06/20 04:24:15;;;;;;;9.98;6.72;;;;;;;13.83;100.00;100374.00;4983391;28;20077;-84
2022/06/20 04:26:55;;;;;;;7.80;6.13;;;;;;;13.78;100.00;100375.03;5002418;28;20049;-84
2022/06/20 04:29:39;;;;;;;10.73;6.82;;;;;;;13.87;100.00;100357.88;4970011;28;20411;-83
2022/06/20 04:32:46;;;;;;;6.78;5.47;;;;;;;13.94;100.00;100350.56;4974908;28;20046;-83
2022/06/20 04:35:23;;;;;;;6.47;5.80;;;;;;;14.02;100.00;100343.16;4955240;28;20043;-82
2022/06/20 04:37:55;;;;;;;6.88;6.03;;;;;;;14.01;100.00;100334.31;4954113;28;20101;-84
2022/06/20 04:40:33;;;;;;;12.60;6.28;;;;;;;14.12;100.00;100333.88;4988089;28;20041;-83
2022/06/20 04:43:02;;;;;;;6.45;4.95;;;;;;;14.04;100.00;100333.31;4975142;28;20042;-82
2022/06/20 04:45:37;;;;;;;9.45;5.80;;;;;;;14.12;100.00;100336.53;4989781;28;20062;-84
2022/06/20 04:48:09;;;;;;;7.05;5.78;;;;;;;14.13;100.00;100342.75;4960098;28;20050;-82
2022/06/20 04:50:35;;;;;;;7.88;5.65;;;;;;;14.18;100.00;100364.66;4973874;28;20261;-84
2022/06/20 04:53:05;;;;;;;10.05;5.53;;;;;;;14.19;100.00;100374.34;4977812;28;20050;-83
2022/06/20 04:55:33;;;;;;;7.30;4.50;;;;;;;14.20;100.00;100365.47;4957797;28;20046;-84
2022/06/20 04:58:04;;;;;;;7.38;5.15;;;;;;;14.14;100.00;100366.59;4976635;28;20046;-82
2022/06/20 05:00:42;;;;;;;6.07;4.63;;;;;;;14.05;100.00;100390.84;4976288;28;20049;-83
2022/06/20 05:03:14;;;;;;;5.30;4.45;;;;;;;14.05;100.00;100393.50;4959073;28;20109;-84
2022/06/20 05:05:44;;;;;;;5.25;4.25;;;;;;;13.94;100.00;100395.69;4958900;28;20050;-84
2022/06/20 05:08:12;;;;;;;4.03;3.47;;;;;;;13.85;100.00;100404.88;4972033;28;20507;-84
2022/06/20 05:10:47;;;;;;;4.95;4.18;;;;;;;13.85;100.00;100396.91;4972944;28;20410;-82
2022/06/20 05:13:18;;;;;;;7.20;5.10;;;;;;;13.97;100.00;100395.59;4963773;28;20057;-84
2022/06/20 05:15:47;;;;;;;6.05;4.40;;;;;;;14.11;100.00;100406.53;4992240;28;20236;-83
2022/06/20 05:18:31;;;;;;;5.22;4.20;;;;;;;14.25;100.00;100417.50;4977415;28;20570;-84
2022/06/20 05:21:26;;;;;;;6.35;4.20;;;;;;;14.39;100.00;100421.41;4976273;28;20042;-84
2022/06/20 05:23:57;;;;;;;7.00;4.10;;;;;;;14.47;100.00;100414.91;4973110;28;20050;-84
2022/06/20 05:26:27;;;;;;;5.80;4.00;;;;;;;14.46;100.00;100428.22;4984516;28;20053;-83
2022/06/20 05:28:57;;;;;;;5.00;4.20;;;;;;;14.49;100.00;100450.25;4978220;28;20050;-84
2022/06/20 05:31:34;;;;;;;5.20;4.28;;;;;;;14.54;100.00;100468.66;4978212;28;20041;-82
2022/06/20 05:34:15;;;;;;;5.22;4.20;;;;;;;14.56;100.00;100512.03;4963206;28;20046;-82
2022/06/20 05:36:58;;;;;;;7.63;4.63;;;;;;;14.53;100.00;100550.19;4975734;28;20534;-83
2022/06/20 05:39:41;;;;;;;7.43;4.00;;;;;;;14.43;100.00;100575.38;5010521;28;20077;-83
2022/06/20 05:42:11;;;;;;;7.25;3.45;;;;;;;14.34;100.00;100586.34;5018086;28;20034;-81
2022/06/20 05:44:38;;;;;;;6.78;4.28;;;;;;;14.29;100.00;100573.25;4973358;28;20539;-83
2022/06/20 05:47:08;;;;;;;6.53;4.75;;;;;;;14.29;100.00;100572.34;4988100;28;20042;-83
2022/06/20 05:49:46;;;;;;;4.88;3.80;;;;;;;14.19;100.00;100576.28;4991862;28;20591;-84
2022/06/20 05:52:19;;;;;;;6.18;4.82;;;;;;;14.15;100.00;100554.28;4993457;28;20092;-85
2022/06/20 05:54:53;;;;;;;5.50;3.72;;;;;;;14.09;100.00;100543.88;5005119;28;20038;-85
2022/06/20 05:57:22;;;;;;;7.78;4.60;;;;;;;14.04;100.00;100535.19;4977466;28;20054;-84
2022/06/20 05:59:53;;;;;;;5.03;4.47;;;;;;;13.94;100.00;100529.34;4990156;28;20046;-84
2022/06/20 06:02:28;;;;;;;5.63;4.40;;;;;;;13.88;100.00;100526.94;4995385;28;20041;-83
2022/06/20 06:05:10;;;;;;;5.80;4.30;;;;;;;13.88;100.00;100529.59;4991605;28;20046;-84
2022/06/20 06:07:53;;;;;;;6.70;5.07;;;;;;;13.91;100.00;100518.00;4969907;28;20052;-85
2022/06/20 06:10:26;;;;;;;7.80;5.15;;;;;;;13.86;100.00;100512.84;4961387;28;20430;-85
2022/06/20 06:13:02;;;;;;;5.13;4.53;;;;;;;13.76;100.00;100500.81;4958895;28;20030;-86
2022/06/20 06:19:03;;;;;;;7.03;4.28;;;;;;;13.59;100.00;100468.69;4997608;28;20042;-85
2022/06/20 06:21:32;;;;;;;8.48;4.35;;;;;;;13.54;100.00;100434.38;4961821;28;20037;-84
2022/06/20 06:23:59;;;;;;;9.38;5.65;;;;;;;13.49;100.00;100344.28;4981483;28;20569;-84
2022/06/20 06:26:26;;;;;;;11.18;4.95;;;;;;;13.44;100.00;100330.31;4992726;28;20046;-83
2022/06/20 06:28:53;;;;;;;7.07;5.18;;;;;;;13.48;100.00;100326.66;4950343;28;20084;-81
2022/06/20 06:31:25;;;;;;;11.98;5.72;;;;;;;13.50;100.00;100277.03;4962445;28;20073;-84
2022/06/20 06:34:03;;;;;;;6.95;5.05;;;;;;;13.42;100.00;100259.66;4993308;28;20046;-84
2022/06/20 06:36:40;;;;;;;10.48;5.47;;;;;;;13.46;100.00;100226.78;4991400;28;20109;-83
2022/06/20 06:39:14;;;;;;;6.20;5.60;;;;;;;13.56;100.00;100240.56;4974098;28;20046;-83
2022/06/20 06:41:45;;;;;;;6.03;4.55;;;;;;;13.52;100.00;100269.00;4996779;28;20145;-86
2022/06/20 06:44:34;;;;;;;6.68;5.03;;;;;;;13.49;100.00;100306.28;4968303;28;20047;-83
2022/06/20 06:47:02;;;;;;;7.22;4.80;;;;;;;13.42;100.00;100299.47;5029718;23;20038;-85
2022/06/20 06:49:42;;;;;;;7.88;5.15;;;;;;;13.41;100.00;100316.31;4938880;28;20042;-85
2022/06/20 06:52:12;;;;;;;7.40;5.32;;;;;;;13.48;100.00;100312.50;4973468;28;20043;-84
2022/06/20 06:54:41;;;;;;;6.57;4.97;;;;;;;13.51;100.00;100299.97;4972916;28;20070;-83
2022/06/20 06:57:18;;;;;;;11.13;5.68;;;;;;;13.57;100.00;100312.16;4973838;28;20035;-84
2022/06/20 07:00:13;;;;;;;6.45;5.30;;;;;;;13.60;100.00;100329.75;4972493;28;20077;-84
2022/06/20 07:02:41;;;;;;;;;;;;;;;13.79;100.00;100318.38;4958161;28;20045;-85
2022/06/20 07:05:17;;;;;;;8.93;5.88;;;;;;;13.90;100.00;100307.31;4965391;28;20379;-84
2022/06/20 07:07:52;;;;;;;10.20;5.95;;;;;;;14.00;100.00;100289.22;4962437;28;20101;-82
2022/06/20 07:10:24;;;;;;;8.00;5.18;;;;;;;14.07;100.00;100296.88;4938024;28;20125;-82
2022/06/20 07:12:52;;;;;;;7.90;5.40;;;;;;;14.21;100.00;100345.94;4938097;28;20039;-85
2022/06/20 07:15:21;;;;;;;5.85;4.53;;;;;;;14.21;100.00;100316.69;4971864;28;20117;-81
2022/06/20 07:18:06;;;;;;;7.85;4.20;;;;;;;14.20;100.00;100301.69;4967283;28;20038;-82
2022/06/20 07:20:39;;;;;;;5.45;4.60;;;;;;;14.19;100.00;100303.47;4975107;28;20393;-83
2022/06/20 07:23:10;;;;;;;5.40;4.00;;;;;;;14.33;100.00;100311.75;4984073;28;20043;-85
2022/06/20 07:25:45;;;;;;;11.13;6.43;;;;;;;14.48;100.00;100328.03;4937737;29;20042;-81
2022/06/20 07:28:29;;;;;;;7.00;4.75;;;;;;;14.61;100.00;100335.41;4938675;28;20046;-83
2022/06/20 07:31:03;;;;;;;;;;;;;;;14.70;100.00;100338.63;4970044;28;20051;-83
2022/06/20 07:33:38;;;;;;;8.10;4.63;;;;;;;14.84;100.00;100346.88;4947609;28;19922;-82
2022/06/20 07:36:07;;;;;;;6.03;4.57;;;;;;;14.86;100.00;100367.16;4969119;28;20039;-82
2022/06/20 07:38:38;;;;;;;5.90;3.90;;;;;;;14.84;100.00;100358.38;4981574;28;20046;-82
2022/06/20 07:41:13;;;;;;;5.03;3.70;;;;;;;14.85;100.00;100361.91;4968449;28;20039;-81
2022/06/20 07:43:47;;;;;;;6.00;4.50;;;;;;;14.82;100.00;100336.31;4945678;28;20113;-82
2022/06/20 07:46:32;;;;;;;6.43;4.28;;;;;;;14.79;100.00;100359.50;4946548;28;20070;-83
2022/06/20 07:49:06;;;;;;;6.85;4.45;;;;;;;14.68;100.00;100359.09;4950928;28;20282;-83
2022/06/20 07:51:35;;;;;;;6.03;3.90;;;;;;;14.74;100.00;100358.84;4943734;28;20039;-83
2022/06/20 07:54:24;;;;;;;6.40;4.43;;;;;;;14.77;100.00;100370.19;4953028;28;20055;-83
2022/06/20 07:56:54;;;;;;;5.30;4.35;;;;;;;14.79;100.00;100376.31;4954874;28;20046;-83
2022/06/20 07:59:24;;;;;;;5.93;4.15;;;;;;;14.77;100.00;100382.63;4953799;28;20070;-82
2022/06/20 08:01:57;;;;;;;6.40;3.70;;;;;;;14.75;100.00;100380.06;4954109;28;20043;-81
2022/06/20 08:04:32;;;;;;;5.05;3.85;;;;;;;14.72;100.00;100368.69;4935125;28;20043;-81
2022/06/20 08:07:24;;;;;;;6.35;3.88;;;;;;;14.70;100.00;100362.53;4969465;28;20043;-81
2022/06/20 08:09:56;;;;;;;3.90;3.40;;;;;;;14.66;100.00;100374.25;4967676;28;20109;-80
2022/06/20 08:12:52;;;;;;;5.57;4.30;;;;;;;14.62;100.00;100382.34;4956701;28;20062;-81
2022/06/20 08:15:51;;;;;;;5.70;3.63;;;;;;;14.61;100.00;100385.06;4936984;28;20042;-81
2022/06/20 08:18:18;;;;;;;5.22;4.05;;;;;;;14.68;100.00;100393.66;4945120;28;20062;-81
2022/06/20 08:20:51;;;;;;;6.72;3.95;;;;;;;14.74;100.00;100390.75;4951023;28;20368;-80
2022/06/20 08:23:22;;;;;;;6.03;3.63;;;;;;;14.73;100.00;100391.69;4949813;28;20046;-81
2022/06/20 08:25:53;;;;;;;5.40;3.42;;;;;;;14.74;100.00;100399.59;4952099;28;20045;-82
2022/06/20 08:28:45;;;;;;;5.20;3.90;;;;;;;14.72;100.00;100405.91;4952268;28;20089;-81
2022/06/20 08:31:31;;;;;;;5.15;3.97;;;;;;;14.65;100.00;100402.63;4967981;28;20520;-80
2022/06/20 08:34:22;;;;;;;4.50;3.80;;;;;;;14.67;100.00;100397.25;4956637;28;20113;-80
2022/06/20 08:36:58;;;;;;;8.35;3.95;;;;;;;14.77;100.00;100403.91;4943517;28;20117;-80
2022/06/20 08:39:29;;;;;;;5.05;3.20;;;;;;;14.87;100.00;100397.28;4952215;28;20051;-80
2022/06/20 08:42:27;;;;;;;3.75;2.88;;;;;;;14.95;100.00;100388.97;4954373;28;20046;-82
2022/06/20 08:45:11;;;;;;;4.43;3.40;;;;;;;14.89;100.00;100385.66;4937579;28;20459;-81
2022/06/20 08:47:53;;;;;;;4.82;4.13;;;;;;;14.93;100.00;100370.41;4956206;28;20683;-80
2022/06/20 08:50:45;;;;;;;6.20;3.70;;;;;;;14.97;100.00;100358.72;4963543;28;20043;-81
2022/06/20 08:53:36;;;;;;;6.00;3.80;;;;;;;15.13;100.00;100346.50;4970228;28;20038;-79
2022/06/20 08:56:14;;;;;;;5.22;3.70;;;;;;;15.29;100.00;100345.78;4967803;28;20077;-82
2022/06/20 08:58:50;;;;;;;7.10;3.90;;;;;;;15.41;100.00;100337.25;4965523;28;20042;-80
2022/06/20 09:01:24;;;;;;;4.72;3.30;;;;;;;15.51;100.00;100335.91;4939518;28;20057;-79
2022/06/20 09:04:12;;;;;;;5.15;3.40;;;;;;;15.62;100.00;100348.75;4952738;28;20046;-80
2022/06/20 09:07:15;;;;;;;4.57;3.25;;;;;;;15.59;100.00;100349.72;4985606;28;20035;-79
2022/06/20 09:10:04;;;;;;;4.78;2.85;;;;;;;15.45;100.00;100355.66;4985974;28;20035;-80
2022/06/20 09:12:49;;;;;;;4.00;2.70;;;;;;;15.54;100.00;100364.16;4941784;28;20579;-80
2022/06/20 09:15:34;;;;;;;4.32;2.72;;;;;;;15.61;100.00;100381.63;4965256;28;20043;-80
2022/06/20 09:18:12;;;;;;;3.92;2.55;;;;;;;15.57;100.00;100390.69;4975502;28;20050;-81
2022/06/20 09:20:52;;;;;;;4.20;2.92;;;;;;;15.56;100.00;100400.47;4962844;28;20396;-80
2022/06/20 09:23:33;;;;;;;4.05;2.90;;;;;;;15.54;100.00;100399.66;4969047;28;20030;-83
2022/06/20 09:26:05;;;;;;;4.03;2.90;;;;;;;15.43;100.00;100408.13;4969546;28;20057;-82
2022/06/20 09:28:51;;;;;;;6.32;3.33;;;;;;;15.43;100.00;100399.28;4984694;28;20042;-81
2022/06/20 09:31:41;;;;;;;4.88;3.50;;;;;;;15.26;100.00;100405.34;4999661;28;20166;-81
2022/06/20 09:34:36;;;;;;;5.30;3.30;;;;;;;15.14;100.00;100405.88;4979724;28;20050;-82
2022/06/20 09:37:25;;;;;;;6.63;3.28;;;;;;;15.18;100.00;100407.47;4963099;28;20141;-83
2022/06/20 09:40:17;;;;;;;5.00;3.58;;;;;;;15.27;100.00;100393.75;4968772;28;20404;-80
2022/06/20 09:43:18;;;;;;;6.72;4.38;;;;;;;15.07;100.00;100385.78;4993138;28;20039;-80
2022/06/20 09:46:06;;;;;;;5.60;3.53;;;;;;;14.93;100.00;100379.25;4974612;28;20039;-82
2022/06/20 09:48:36;;;;;;;4.53;3.55;;;;;;;14.89;100.00;100360.84;4975219;28;20085;-79
2022/06/20 09:51:25;;;;;;;4.85;3.80;;;;;;;14.87;100.00;100354.72;4959006;28;20515;-81
2022/06/20 09:54:08;;;;;;;5.38;3.80;;;;;;;14.90;100.00;100365.25;4969439;28;20582;-81
2022/06/20 09:56:48;;;;;;;8.00;4.35;;;;;;;14.90;100.00;100374.09;4962193;28;20081;-82
2022/06/20 09:59:28;;;;;;;3.95;2.90;;;;;;;14.82;100.00;100384.19;4985982;28;20202;-80
2022/06/20 10:02:19;;;;;;;5.38;3.53;;;;;;;14.69;100.00;100406.88;4954683;29;20090;-82
2022/06/20 10:04:53;;;;;;;5.50;3.42;;;;;;;14.66;100.00;100427.44;4950433;28;20039;-83
2022/06/20 10:07:35;;;;;;;5.57;3.63;;;;;;;14.63;100.00;100437.28;4960626;28;20039;-83
2022/06/20 10:10:04;;;;;;;5.00;3.60;;;;;;;14.76;100.00;100442.94;4969479;28;20081;-83
2022/06/20 10:12:36;;;;;;;4.47;3.80;;;;;;;14.71;100.00;100460.88;4981798;28;20053;-82
2022/06/20 10:15:21;;;;;;;4.93;3.47;;;;;;;14.56;100.00;100461.50;4956834;28;20046;-81
2022/06/20 10:18:18;;;;;;;5.18;3.40;;;;;;;14.46;100.00;100447.72;4965456;28;20042;-82
2022/06/20 10:21:07;;;;;;;5.30;3.65;;;;;;;14.32;100.00;100431.41;4972289;28;20047;-81
2022/06/20 10:24:04;;;;;;;7.53;3.70;;;;;;;14.18;100.00;100421.31;4971812;28;20180;-82
2022/06/20 10:26:50;;;;;;;4.78;3.38;;;;;;;14.16;100.00;100420.53;4971002;28;20054;-79
2022/06/20 10:29:23;;;;;;;5.32;3.28;;;;;;;14.23;100.00;100442.41;4954235;28;20039;-80
2022/06/20 10:32:11;;;;;;;5.43;3.72;;;;;;;14.23;100.00;100439.75;4952142;28;20058;-80
2022/06/20 10:34:48;;;;;;;4.55;3.30;;;;;;;14.23;100.00;100432.63;4944127;28;20508;-82
2022/06/20 10:37:18;;;;;;;4.47;3.50;;;;;;;14.18;100.00;100420.44;4941278;28;20389;-81
2022/06/20 10:39:56;;;;;;;8.32;3.85;;;;;;;14.22;100.00;100411.44;4956006;28;20046;-82
2022/06/20 10:42:39;;;;;;;4.55;3.78;;;;;;;14.30;100.00;100415.53;4953647;28;20515;-83
2022/06/20 10:45:28;;;;;;;5.95;3.45;;;;;;;14.30;100.00;100412.88;4952343;28;20052;-81
2022/06/20 10:48:21;;;;;;;4.75;3.47;;;;;;;14.54;100.00;100426.97;4947266;28;20054;-83
2022/06/20 10:51:09;;;;;;;5.25;3.40;;;;;;;14.71;100.00;100426.28;4936245;29;20046;-82
2022/06/20 10:54:03;;;;;;;5.80;3.95;;;;;;;14.75;100.00;100433.22;4987219;28;20435;-80
2022/06/20 10:56:33;;;;;;;7.82;3.83;;;;;;;14.87;100.00;100427.38;4940621;28;20038;-82
2022/06/20 10:59:31;;;;;;;6.85;3.50;;;;;;;14.84;100.00;100419.56;4959607;28;20073;-81
2022/06/20 11:02:24;;;;;;;5.82;3.85;;;;;;;14.95;100.00;100415.56;4957152;28;20522;-83
2022/06/20 11:05:29;;;;;;;4.38;3.45;;;;;;;14.88;100.00;100420.28;4952265;28;20054;-82
2022/06/20 11:08:37;;;;;;;6.57;3.92;;;;;;;14.96;100.00;100407.50;4966882;28;20118;-81
2022/06/20 11:11:16;;;;;;;5.03;3.83;;;;;;;15.06;100.00;100400.91;4950797;28;20569;-81
2022/06/20 11:13:47;;;;;;;6.22;4.10;;;;;;;15.08;100.00;100404.34;4949019;29;20047;-80
2022/06/20 11:16:31;;;;;;;7.60;4.65;;;;;;;15.27;100.00;100417.72;4954458;28;20050;-82
2022/06/20 11:19:36;;;;;;;5.35;3.70;;;;;;;15.34;100.00;100420.97;4953681;28;20130;-82
2022/06/20 11:22:05;;;;;;;7.53;4.70;;;;;;;15.23;100.00;100410.81;4948780;28;20050;-81
2022/06/20 11:24:44;;;;;;;5.40;4.20;;;;;;;15.18;100.00;100416.31;4966240;28;20041;-81
2022/06/20 11:27:37;;;;;;;5.15;4.47;;;;;;;15.18;100.00;100411.00;4969127;28;20051;-79
2022/06/20 11:30:24;;;;;;;5.30;3.70;;;;;;;15.23;100.00;100404.63;4953425;28;20447;-81
2022/06/20 11:32:50;;;;;;;5.80;4.05;;;;;;;15.12;100.00;100405.94;4964266;28;20121;-81
2022/06/20 11:35:57;;;;;;;4.72;4.18;;;;;;;15.17;100.00;100409.28;4969087;28;20042;-80
2022/06/20 11:38:52;;;;;;;5.18;4.63;;;;;;;15.18;100.00;100400.34;4969514;28;20059;-80
2022/06/20 11:41:30;;;;;;;8.07;4.63;;;;;;;15.21;100.00;100399.34;4946788;28;20058;-80
2022/06/20 11:44:11;;;;;;;6.10;4.82;;;;;;;15.17;100.00;100401.28;4953379;28;20105;-81
2022/06/20 11:46:50;;;;;;;6.00;4.80;;;;;;;15.17;100.00;100405.75;4964987;28;20443;-79
2022/06/20 11:49:48;;;;;;;7.68;4.68;;;;;;;15.15;100.00;100411.13;4931254;28;20047;-80
2022/06/20 11:52:30;;;;;;;8.85;4.88;;;;;;;15.04;100.00;100401.88;4953790;28;20043;-80
2022/06/20 11:55:00;;;;;;;5.55;4.45;;;;;;;14.97;100.00;100408.41;4968859;28;20046;-81
2022/06/20 11:57:43;;;;;;;5.60;4.40;;;;;;;14.92;100.00;100409.47;4957312;28;20042;-80
2022/06/20 12:00:20;;;;;;;6.20;4.57;;;;;;;14.91;100.00;100391.78;4969264;28;20047;-81
2022/06/20 12:03:06;;;;;;;6.63;4.90;;;;;;;14.96;100.00;100388.91;4954998;28;20388;-81
2022/06/20 12:05:45;;;;;;;8.07;5.45;;;;;;;14.95;100.00;100408.44;4964272;28;20046;-80
2022/06/20 12:08:18;;;;;;;5.47;4.68;;;;;;;14.92;100.00;100416.56;4955111;28;20050;-78
2022/06/20 12:10:56;;;;;;;5.15;4.30;;;;;;;14.93;100.00;100408.53;4977132;28;20704;-82
2022/06/20 12:13:26;;;;;;;4.88;4.18;;;;;;;14.85;100.00;100420.41;4961711;28;20392;-81
2022/06/20 12:15:52;;;;;;;5.97;4.13;;;;;;;14.86;100.00;100424.81;4946674;28;20101;-80
2022/06/20 12:18:34;;;;;;;6.95;4.47;;;;;;;15.00;100.00;100422.44;4953295;28;20077;-82